createdAt,value
2019-05-17T00:00:07.858Z,12.80
2019-05-17T00:02:37.471Z,14.83
2019-05-17T00:05:07.600Z,14.77
2019-05-17T00:07:36.943Z,15.23
2019-05-17T00:10:09.378Z,13.33
2019-05-17T00:12:37.920Z,12.37
2019-05-17T00:15:07.602Z,13.67
2019-05-17T00:17:37.828Z,14.80
2019-05-17T00:20:10.287Z,12.17
2019-05-17T00:22:38.821Z,13.30
2019-05-17T00:25:08.529Z,12.97
2019-05-17T00:27:37.749Z,13.60
2019-05-17T00:30:08.331Z,13.30
2019-05-17T00:32:37.081Z,14.27
2019-05-17T00:35:07.756Z,14.87
2019-05-17T00:37:37.384Z,14.33
2019-05-17T00:40:09.833Z,15.20
2019-05-17T00:42:38.372Z,14.33
2019-05-17T00:45:07.972Z,14.73
2019-05-17T00:47:37.434Z,14.03
2019-05-17T00:50:07.834Z,14.33
2019-05-17T00:52:37.022Z,15.37
2019-05-17T00:55:09.296Z,15.00
2019-05-17T00:57:37.839Z,15.83
2019-05-17T01:00:08.485Z,15.03
2019-05-17T01:02:37.111Z,14.70
2019-05-17T01:05:07.112Z,16.47
2019-05-17T01:07:37.624Z,13.90
2019-05-17T01:10:08.175Z,13.90
2019-05-17T01:12:36.890Z,14.87
2019-05-17T01:15:07.576Z,13.90
2019-05-17T01:17:36.660Z,14.63
2019-05-17T01:20:10.132Z,14.40
2019-05-17T01:22:38.702Z,14.90
2019-05-17T01:25:08.385Z,14.87
2019-05-17T01:27:38.234Z,15.20
2019-05-17T01:30:09.555Z,15.97
2019-05-17T01:32:38.118Z,14.70
2019-05-17T01:35:07.684Z,14.93
2019-05-17T01:37:36.902Z,14.80
2019-05-17T01:40:07.760Z,15.10
2019-05-17T01:42:37.457Z,14.43
2019-05-17T01:45:07.994Z,15.40
2019-05-17T01:47:36.991Z,15.33
2019-05-17T01:50:09.209Z,14.50
2019-05-17T01:52:37.823Z,14.60
2019-05-17T01:55:09.316Z,16.47
2019-05-17T01:57:37.904Z,13.93
2019-05-17T02:00:08.769Z,15.70
2019-05-17T02:02:38.972Z,14.63
2019-05-17T02:05:08.775Z,16.27
2019-05-17T02:07:37.429Z,15.23
2019-05-17T02:10:07.559Z,17.83
2019-05-17T02:12:37.158Z,15.70
2019-05-17T02:15:08.651Z,16.17
2019-05-17T02:17:37.512Z,15.67
2019-05-17T02:20:07.752Z,15.73
2019-05-17T02:22:36.788Z,15.77
2019-05-17T02:25:07.673Z,15.80
2019-05-17T02:27:41.282Z,17.13
2019-05-17T02:30:07.955Z,15.97
2019-05-17T02:32:38.362Z,16.43
2019-05-17T02:35:07.334Z,15.13
2019-05-17T02:37:35.908Z,15.93
2019-05-17T02:40:08.561Z,15.37
2019-05-17T02:42:37.435Z,14.87
2019-05-17T02:45:06.217Z,15.73
2019-05-17T02:47:34.852Z,14.97
2019-05-17T02:50:05.514Z,15.30
2019-05-17T02:52:34.611Z,14.77
2019-05-17T02:55:03.939Z,16.03
2019-05-17T02:57:34.670Z,16.57
2019-05-17T03:00:04.306Z,16.23
2019-05-17T03:02:34.081Z,15.67
2019-05-17T03:05:03.998Z,15.80
2019-05-17T03:07:32.742Z,15.47
2019-05-17T03:10:16.521Z,15.70
2019-05-17T03:12:32.860Z,14.40
2019-05-17T03:15:04.014Z,15.23
2019-05-17T03:17:33.922Z,14.93
2019-05-17T03:20:04.113Z,15.53
2019-05-17T03:22:33.246Z,16.23
2019-05-17T03:25:03.206Z,14.97
2019-05-17T03:27:33.774Z,15.67
2019-05-17T03:30:04.173Z,15.23
2019-05-17T03:32:36.082Z,14.40
2019-05-17T03:35:06.752Z,15.63
2019-05-17T03:37:37.254Z,14.10
2019-05-17T03:40:04.780Z,16.33
2019-05-17T03:42:33.108Z,14.30
2019-05-17T03:45:03.049Z,15.03
2019-05-17T03:47:33.448Z,15.03
2019-05-17T03:50:03.034Z,14.43
2019-05-17T03:52:33.285Z,13.87
2019-05-17T03:55:03.907Z,12.73
2019-05-17T03:57:32.291Z,13.87
2019-05-17T04:00:03.835Z,13.10
2019-05-17T04:02:32.664Z,13.90
2019-05-17T04:05:04.290Z,14.63
2019-05-17T04:07:32.801Z,14.43
2019-05-17T04:10:04.518Z,12.67
2019-05-17T04:12:32.799Z,12.70
2019-05-17T04:15:03.209Z,14.37
2019-05-17T04:17:32.845Z,13.83
2019-05-17T04:20:03.589Z,14.17
2019-05-17T04:22:33.078Z,14.13
2019-05-17T04:25:03.016Z,16.03
2019-05-17T04:27:32.677Z,14.40
2019-05-17T04:30:03.582Z,14.23
2019-05-17T04:32:33.089Z,13.50
2019-05-17T04:35:03.741Z,14.60
2019-05-17T04:37:33.934Z,13.80
2019-05-17T04:40:03.487Z,14.23
2019-05-17T04:42:33.066Z,13.93
2019-05-17T04:45:03.768Z,14.57
2019-05-17T04:47:33.196Z,14.13
2019-05-17T04:50:03.926Z,14.47
2019-05-17T04:52:33.634Z,13.80
2019-05-17T04:55:04.017Z,14.00
2019-05-17T04:57:32.738Z,14.03
2019-05-17T05:00:04.192Z,13.53
2019-05-17T05:02:32.956Z,14.27
2019-05-17T05:05:03.402Z,13.67
2019-05-17T05:07:33.525Z,13.67
2019-05-17T05:10:03.012Z,12.33
2019-05-17T05:12:33.634Z,12.90
2019-05-17T05:15:03.505Z,13.73
2019-05-17T05:17:32.906Z,12.63
2019-05-17T05:20:02.780Z,12.63
2019-05-17T05:22:33.068Z,13.20
2019-05-17T05:25:02.265Z,12.67
2019-05-17T05:27:31.605Z,12.43
2019-05-17T05:29:59.967Z,12.10
2019-05-17T05:32:28.503Z,11.13
2019-05-17T05:34:57.067Z,11.63
2019-05-17T05:37:25.631Z,10.70
2019-05-17T05:39:54.734Z,11.47
2019-05-17T05:42:23.351Z,13.33
2019-05-17T05:44:52.229Z,12.00
2019-05-17T05:47:22.186Z,10.67
2019-05-17T05:49:52.052Z,12.03
2019-05-17T05:52:21.815Z,12.43
2019-05-17T05:54:52.061Z,11.03
2019-05-17T05:57:21.870Z,11.83
2019-05-17T05:59:51.797Z,11.63
2019-05-17T06:02:21.774Z,10.83
2019-05-17T06:04:51.852Z,11.70
2019-05-17T06:07:21.617Z,11.17
2019-05-17T06:09:51.757Z,11.53
2019-05-17T06:12:24.796Z,11.13
2019-05-17T06:14:52.357Z,10.37
2019-05-17T06:17:21.590Z,9.90
2019-05-17T06:19:51.723Z,10.73
2019-05-17T06:22:22.414Z,10.37
2019-05-17T06:24:52.011Z,11.00
2019-05-17T06:27:21.511Z,10.83
2019-05-17T06:29:51.523Z,9.97
2019-05-17T06:32:22.818Z,10.07
2019-05-17T06:34:51.492Z,11.00
2019-05-17T06:37:22.215Z,10.17
2019-05-17T06:39:52.488Z,10.13
2019-05-17T06:42:22.943Z,9.50
2019-05-17T06:44:52.384Z,10.43
2019-05-17T06:47:22.565Z,9.97
2019-05-17T06:49:53.462Z,10.17
2019-05-17T06:52:22.564Z,9.57
2019-05-17T06:54:52.446Z,9.70
2019-05-17T06:57:23.189Z,9.13
2019-05-17T06:59:50.971Z,9.63
2019-05-17T07:02:19.807Z,8.93
2019-05-17T07:04:50.731Z,9.47
2019-05-17T07:07:30.174Z,9.50
2019-05-17T07:10:00.895Z,8.93
2019-05-17T07:12:30.722Z,9.27
2019-05-17T07:15:01.714Z,9.27
2019-05-17T07:17:30.427Z,8.43
2019-05-17T07:19:59.726Z,8.57
2019-05-17T07:22:29.617Z,8.00
2019-05-17T07:24:59.721Z,7.90
2019-05-17T07:27:38.763Z,7.63
2019-05-17T07:29:59.236Z,7.97
2019-05-17T07:32:29.793Z,7.53
2019-05-17T07:34:59.993Z,7.03
2019-05-17T07:37:30.404Z,7.30
2019-05-17T07:40:04.488Z,7.80
2019-05-17T07:42:29.817Z,7.47
2019-05-17T07:45:00.575Z,6.70
2019-05-17T07:47:29.473Z,6.73
2019-05-17T07:50:00.716Z,7.73
2019-05-17T07:52:29.994Z,7.00
2019-05-17T07:55:02.349Z,6.67
2019-05-17T07:57:29.946Z,5.80
2019-05-17T08:00:00.021Z,6.97
2019-05-17T08:02:30.730Z,5.60
2019-05-17T08:05:00.546Z,6.30
2019-05-17T08:07:30.190Z,6.20
2019-05-17T08:10:00.176Z,5.70
2019-05-17T08:12:30.505Z,5.97
2019-05-17T08:14:59.846Z,5.60
2019-05-17T08:17:30.453Z,5.87
2019-05-17T08:20:00.672Z,5.47
2019-05-17T08:22:29.445Z,6.23
2019-05-17T08:25:00.086Z,5.43
2019-05-17T08:27:29.662Z,5.63
2019-05-17T08:29:59.595Z,5.70
2019-05-17T08:32:31.350Z,5.60
2019-05-17T08:35:00.292Z,5.23
2019-05-17T08:37:30.205Z,5.70
2019-05-17T08:40:00.152Z,6.23
2019-05-17T08:42:30.022Z,5.87
2019-05-17T08:45:00.215Z,5.40
2019-05-17T08:47:30.069Z,5.23
2019-05-17T08:50:00.506Z,5.10
2019-05-17T08:52:29.473Z,5.40
2019-05-17T08:55:00.189Z,5.40
2019-05-17T08:57:30.276Z,5.30
2019-05-17T09:00:00.836Z,5.23
2019-05-17T09:02:29.873Z,6.27
2019-05-17T09:05:00.481Z,5.20
2019-05-17T09:07:29.530Z,5.07
2019-05-17T09:09:58.589Z,4.67
2019-05-17T09:12:29.848Z,5.60
2019-05-17T09:14:57.321Z,5.23
2019-05-17T09:17:25.886Z,4.73
2019-05-17T09:19:54.557Z,4.87
2019-05-17T09:22:22.772Z,4.60
2019-05-17T09:24:51.332Z,5.10
2019-05-17T09:27:19.984Z,5.10
2019-05-17T09:29:49.738Z,4.70
2019-05-17T09:32:20.193Z,5.20
2019-05-17T09:34:49.821Z,4.73
2019-05-17T09:37:22.137Z,5.07
2019-05-17T09:39:49.289Z,4.97
2019-05-17T09:42:20.459Z,5.17
2019-05-17T09:44:49.678Z,4.90
2019-05-17T09:47:20.537Z,4.90
2019-05-17T09:49:50.180Z,4.83
2019-05-17T09:52:20.004Z,4.67
2019-05-17T09:54:50.430Z,4.27
2019-05-17T09:57:20.451Z,4.70
2019-05-17T09:59:49.663Z,4.93
2019-05-17T10:02:20.418Z,5.40
2019-05-17T10:04:50.252Z,5.33
2019-05-17T10:07:20.553Z,4.87
2019-05-17T10:09:50.171Z,4.67
2019-05-17T10:12:20.287Z,3.90
2019-05-17T10:15:10.072Z,4.60
2019-05-17T10:17:38.962Z,1.97
2019-05-17T10:20:10.794Z,2.17
2019-05-17T10:22:40.227Z,1.63
2019-05-17T10:25:09.720Z,1.87
2019-05-17T10:27:40.418Z,2.07
2019-05-17T10:30:10.351Z,2.07
2019-05-17T10:32:40.785Z,1.90
2019-05-17T10:35:10.306Z,1.60
2019-05-17T10:37:40.673Z,1.70
2019-05-17T10:40:10.850Z,1.97
2019-05-17T10:42:39.935Z,1.67
2019-05-17T10:45:11.011Z,1.97
2019-05-17T10:47:39.762Z,1.40
2019-05-17T10:50:10.879Z,1.97
2019-05-17T10:52:41.001Z,1.40
2019-05-17T10:55:10.889Z,2.20
2019-05-17T10:57:39.820Z,2.20
2019-05-17T11:00:10.047Z,1.53
2019-05-17T11:02:39.190Z,2.07
2019-05-17T11:05:10.611Z,1.87
2019-05-17T11:07:38.463Z,1.80
2019-05-17T11:10:11.382Z,1.40
2019-05-17T11:12:38.651Z,1.87
2019-05-17T11:15:11.451Z,1.60
2019-05-17T11:17:38.515Z,1.70
2019-05-17T11:20:07.758Z,1.70
2019-05-17T11:22:36.402Z,1.30
2019-05-17T11:25:07.997Z,2.03
2019-05-17T11:27:36.730Z,2.30
2019-05-17T11:30:06.414Z,1.97
2019-05-17T11:32:34.636Z,1.90
2019-05-17T11:35:04.437Z,1.63
2019-05-17T11:37:32.979Z,2.07
2019-05-17T11:40:01.568Z,1.60
2019-05-17T11:42:30.101Z,1.33
2019-05-17T11:44:58.691Z,2.03
2019-05-17T11:47:27.231Z,2.80
2019-05-17T11:49:55.788Z,2.60
2019-05-17T11:52:24.351Z,1.97
2019-05-17T11:54:52.979Z,2.90
2019-05-17T11:57:21.523Z,2.13
2019-05-17T11:59:50.087Z,2.10
2019-05-17T12:02:21.360Z,2.30
2019-05-17T12:04:48.839Z,2.50
2019-05-17T12:07:17.463Z,2.27
2019-05-17T12:09:46.028Z,2.00
2019-05-17T12:12:14.589Z,2.13
2019-05-17T12:14:43.145Z,2.30
2019-05-17T12:17:11.685Z,1.17
2019-05-17T12:19:40.340Z,1.70
2019-05-17T12:22:08.884Z,1.73
2019-05-17T12:24:37.516Z,1.77
2019-05-17T12:27:05.775Z,1.70
2019-05-17T12:29:34.337Z,1.60
2019-05-17T12:32:02.928Z,1.40
2019-05-17T12:34:31.517Z,1.70
2019-05-17T12:37:00.013Z,1.53
2019-05-17T12:39:28.664Z,1.40
2019-05-17T12:41:57.273Z,1.40
2019-05-17T12:44:26.053Z,1.53
2019-05-17T12:46:54.591Z,1.73
2019-05-17T12:49:23.240Z,1.33
2019-05-17T12:51:51.774Z,1.83
2019-05-17T12:54:20.424Z,2.10
2019-05-17T12:56:48.981Z,1.53
2019-05-17T12:59:17.543Z,1.80
2019-05-17T13:01:45.771Z,1.63
2019-05-17T13:04:14.345Z,1.77
2019-05-17T13:06:42.951Z,1.47
2019-05-17T13:09:11.536Z,1.40
2019-05-17T13:11:40.071Z,1.50
2019-05-17T13:14:08.607Z,1.90
2019-05-17T13:16:37.172Z,1.67
2019-05-17T13:19:05.708Z,1.90
2019-05-17T13:21:34.263Z,1.73
2019-05-17T13:24:02.821Z,1.50
2019-05-17T13:26:34.452Z,1.10
2019-05-17T13:29:03.065Z,1.60
2019-05-17T13:31:31.644Z,1.30
2019-05-17T13:34:00.180Z,1.47
2019-05-17T13:36:28.758Z,1.40
2019-05-17T13:38:57.305Z,1.57
2019-05-17T13:41:26.524Z,1.73
2019-05-17T13:43:55.087Z,1.33
2019-05-17T13:46:32.779Z,3.07
2019-05-17T13:48:53.860Z,3.00
2019-05-17T13:51:22.488Z,2.63
2019-05-17T13:53:51.029Z,2.33
2019-05-17T13:56:19.667Z,3.60
2019-05-17T13:58:48.232Z,2.87
2019-05-17T14:01:16.790Z,2.67
2019-05-17T14:03:45.433Z,2.97
2019-05-17T14:06:13.973Z,2.60
2019-05-17T14:08:42.243Z,2.63
2019-05-17T14:11:10.830Z,2.20
2019-05-17T14:13:39.378Z,2.27
2019-05-17T14:16:07.960Z,2.30
2019-05-17T14:18:36.521Z,2.80
2019-05-17T14:21:05.104Z,2.60
2019-05-17T14:23:33.676Z,2.63
2019-05-17T14:26:02.299Z,2.60
2019-05-17T14:28:30.785Z,2.70
2019-05-17T14:30:59.349Z,2.70
2019-05-17T14:33:27.559Z,2.93
2019-05-17T14:35:56.120Z,2.70
2019-05-17T14:38:24.701Z,2.50
2019-05-17T14:41:06.772Z,2.40
2019-05-17T14:43:23.447Z,2.50
2019-05-17T14:45:52.081Z,2.50
2019-05-17T14:48:20.286Z,2.30
2019-05-17T14:50:48.853Z,2.10
2019-05-17T14:53:17.460Z,2.50
2019-05-17T14:55:46.018Z,2.53
2019-05-17T14:58:14.596Z,2.30
2019-05-17T15:00:43.129Z,2.73
2019-05-17T15:03:11.692Z,2.47
2019-05-17T15:05:40.256Z,2.10
2019-05-17T15:08:08.811Z,2.10
2019-05-17T15:10:37.348Z,2.20
2019-05-17T15:13:05.927Z,2.50
2019-05-17T15:15:34.535Z,1.93
2019-05-17T15:18:03.195Z,2.27
2019-05-17T15:20:31.733Z,2.20
2019-05-17T15:23:00.297Z,2.20
2019-05-17T15:25:28.836Z,2.17
2019-05-17T15:27:57.401Z,2.40
2019-05-17T15:30:25.613Z,2.23
2019-05-17T15:32:54.182Z,2.07
2019-05-17T15:35:22.729Z,2.33
2019-05-17T15:37:51.315Z,1.93
2019-05-17T15:40:19.873Z,2.40
2019-05-17T15:42:48.496Z,1.90
2019-05-17T15:45:17.107Z,2.03
2019-05-17T15:47:45.772Z,1.90
2019-05-17T15:50:14.488Z,1.80
2019-05-17T15:52:42.770Z,2.23
2019-05-17T15:55:11.740Z,1.97
2019-05-17T15:57:40.295Z,2.10
2019-05-17T16:00:09.469Z,2.00
2019-05-17T16:02:38.365Z,2.00
2019-05-17T16:05:07.455Z,2.10
2019-05-17T16:07:35.692Z,2.10
2019-05-17T16:10:06.976Z,1.80
2019-05-17T16:12:35.553Z,2.00
2019-05-17T16:17:33.399Z,2.40
2019-05-17T16:20:02.027Z,2.03
2019-05-17T16:22:30.585Z,2.40
2019-05-17T16:24:58.790Z,2.20
2019-05-17T16:27:27.379Z,2.40
2019-05-17T16:29:55.915Z,2.20
2019-05-17T16:32:24.557Z,2.20
2019-05-17T16:34:53.085Z,2.43
2019-05-17T16:37:21.647Z,1.90
2019-05-17T16:39:50.247Z,2.00
2019-05-17T16:42:18.926Z,1.70
2019-05-17T16:44:47.473Z,1.90
2019-05-17T16:47:16.000Z,2.10
2019-05-17T16:49:44.591Z,2.17
2019-05-17T16:52:13.128Z,1.97
2019-05-17T16:54:41.686Z,1.80
2019-05-17T16:57:10.322Z,1.83
2019-05-17T16:59:38.949Z,2.17
2019-05-17T17:02:07.225Z,2.10
2019-05-17T17:04:35.453Z,2.20
2019-05-17T17:07:04.156Z,1.80
2019-05-17T17:09:32.718Z,2.17
2019-05-17T17:12:01.271Z,1.97
2019-05-17T17:14:31.168Z,1.73
2019-05-17T17:16:59.797Z,1.93
2019-05-17T17:19:28.508Z,2.20
2019-05-17T17:21:57.120Z,2.30
2019-05-17T17:24:25.775Z,2.10
2019-05-17T17:26:54.382Z,2.00
2019-05-17T17:29:22.940Z,1.70
2019-05-17T17:31:51.525Z,1.90
2019-05-17T17:34:20.084Z,2.70
2019-05-17T17:36:48.619Z,3.23
2019-05-17T17:39:17.175Z,2.80
2019-05-17T17:41:46.003Z,2.23
2019-05-17T17:44:14.583Z,1.90
2019-05-17T17:46:43.144Z,1.97
2019-05-17T17:49:11.705Z,2.70
2019-05-17T17:51:40.336Z,2.10
2019-05-17T17:54:08.897Z,1.80
2019-05-17T17:56:37.434Z,1.90
2019-05-17T17:59:06.086Z,1.90
2019-05-17T18:01:34.716Z,2.07
2019-05-17T18:04:03.283Z,2.10
2019-05-17T18:06:31.819Z,2.00
2019-05-17T18:09:00.384Z,2.03
2019-05-17T18:11:28.944Z,1.90
2019-05-17T18:14:12.171Z,2.40
2019-05-17T18:16:27.775Z,2.30
2019-05-17T18:18:56.334Z,2.37
2019-05-17T18:21:24.912Z,2.10
2019-05-17T18:23:53.453Z,2.23
2019-05-17T18:26:22.017Z,1.90
2019-05-17T18:28:50.555Z,2.30
2019-05-17T18:31:19.118Z,2.40
2019-05-17T18:33:47.723Z,2.37
2019-05-17T18:36:16.313Z,2.20
2019-05-17T18:38:47.912Z,2.37
2019-05-17T18:41:16.495Z,2.30
2019-05-17T18:43:45.031Z,2.20
2019-05-17T18:46:13.668Z,2.27
2019-05-17T18:48:42.200Z,2.30
2019-05-17T18:51:10.496Z,2.40
2019-05-17T18:53:39.108Z,2.73
2019-05-17T18:56:07.659Z,3.40
2019-05-17T18:58:39.193Z,2.50
2019-05-17T19:01:06.434Z,3.30
2019-05-17T19:03:34.967Z,2.80
2019-05-17T19:06:03.632Z,3.40
2019-05-17T19:08:32.164Z,3.40
2019-05-17T19:11:00.392Z,3.60
2019-05-17T19:13:28.941Z,3.10
2019-05-17T19:15:57.505Z,3.27
2019-05-17T19:18:26.057Z,3.80
2019-05-17T19:20:54.606Z,3.73
2019-05-17T19:23:25.805Z,3.30
2019-05-17T19:25:53.383Z,3.77
2019-05-17T19:28:21.988Z,3.67
2019-05-17T19:30:50.594Z,4.07
2019-05-17T19:33:19.176Z,3.70
2019-05-17T19:35:47.736Z,4.00
2019-05-17T19:38:16.341Z,3.70
2019-05-17T19:40:44.919Z,4.10
2019-05-17T19:43:13.451Z,3.67
2019-05-17T19:45:42.116Z,4.80
2019-05-17T19:48:10.672Z,4.70
2019-05-17T19:50:39.268Z,4.07
2019-05-17T19:53:07.900Z,3.93
2019-05-17T19:55:36.507Z,4.07
2019-05-17T19:58:05.209Z,3.70
2019-05-17T20:00:33.821Z,4.23
2019-05-17T20:03:02.479Z,4.43
2019-05-17T20:05:31.040Z,4.10
2019-05-17T20:07:59.601Z,4.47
2019-05-17T20:10:27.828Z,4.33
2019-05-17T20:12:56.392Z,4.37
2019-05-17T20:15:34.130Z,4.40
2019-05-17T20:17:55.232Z,4.23
2019-05-17T20:20:23.934Z,4.60
2019-05-17T20:22:52.493Z,4.37
2019-05-17T20:25:21.191Z,4.60
2019-05-17T20:27:49.759Z,3.90
2019-05-17T20:30:18.740Z,4.50
2019-05-17T20:32:47.374Z,4.37
2019-05-17T20:35:17.950Z,4.00
2019-05-17T20:37:46.284Z,4.03
2019-05-17T20:40:15.257Z,4.07
2019-05-17T20:42:43.811Z,4.20
2019-05-17T20:45:12.723Z,4.60
2019-05-17T20:47:41.284Z,4.37
2019-05-17T20:50:11.767Z,4.30
2019-05-17T20:52:40.351Z,4.30
2019-05-17T20:55:09.147Z,4.60
2019-05-17T20:57:38.171Z,4.73
2019-05-17T21:00:08.316Z,4.67
2019-05-17T21:02:36.878Z,5.17
2019-05-17T21:05:07.377Z,4.90
2019-05-17T21:07:35.937Z,5.07
2019-05-17T21:10:05.823Z,4.47
2019-05-17T21:12:34.381Z,4.67
2019-05-17T21:15:03.307Z,4.73
2019-05-17T21:17:31.533Z,4.97
2019-05-17T21:20:00.073Z,4.70
2019-05-17T21:22:28.670Z,4.77
2019-05-17T21:24:57.205Z,4.60
2019-05-17T21:27:25.788Z,4.73
2019-05-17T21:29:54.322Z,4.63
2019-05-17T21:32:22.907Z,4.60
2019-05-17T21:34:51.443Z,4.87
2019-05-17T21:37:20.099Z,4.47
2019-05-17T21:39:48.655Z,5.23
2019-05-17T21:42:17.220Z,5.00
2019-05-17T21:44:45.784Z,5.23
2019-05-17T21:47:14.339Z,4.83
2019-05-17T21:49:42.944Z,5.40
2019-05-17T21:52:11.528Z,4.87
2019-05-17T21:54:40.039Z,4.63
2019-05-17T21:57:08.603Z,4.83
2019-05-17T21:59:37.143Z,4.93
2019-05-17T22:02:05.867Z,4.53
2019-05-17T22:04:34.408Z,4.87
2019-05-17T22:07:02.709Z,4.70
2019-05-17T22:09:31.254Z,5.27
2019-05-17T22:12:01.456Z,4.87
2019-05-17T22:14:30.073Z,4.97
2019-05-17T22:16:58.655Z,4.93
2019-05-17T22:19:27.197Z,4.60
2019-05-17T22:21:55.734Z,5.60
2019-05-17T22:24:24.306Z,4.80
2019-05-17T22:26:52.508Z,4.80
2019-05-17T22:29:21.067Z,4.70
2019-05-17T22:31:49.607Z,4.77
2019-05-17T22:34:18.247Z,4.70
2019-05-17T22:36:46.783Z,4.77
2019-05-17T22:39:15.344Z,4.50
2019-05-17T22:41:43.879Z,4.77
2019-05-17T22:44:12.463Z,5.30
2019-05-17T22:46:41.012Z,5.23
2019-05-17T22:49:09.586Z,5.07
2019-05-17T22:51:38.216Z,5.13
2019-05-17T22:54:06.932Z,5.30
2019-05-17T22:56:35.535Z,4.90
2019-05-17T22:59:04.263Z,5.37
2019-05-17T23:01:32.872Z,5.40
2019-05-17T23:04:01.444Z,6.07
2019-05-17T23:06:29.971Z,5.40
2019-05-17T23:08:58.564Z,5.83
2019-05-17T23:11:27.092Z,5.90
2019-05-17T23:13:55.730Z,4.90
2019-05-17T23:16:24.303Z,6.00
2019-05-17T23:19:08.478Z,6.33
2019-05-17T23:21:37.461Z,5.53
2019-05-17T23:24:06.531Z,5.13
2019-05-17T23:26:35.140Z,6.70
2019-05-17T23:29:03.910Z,6.07
2019-05-17T23:31:32.528Z,6.20
2019-05-17T23:34:01.084Z,5.70
2019-05-17T23:36:29.692Z,6.13
2019-05-17T23:38:58.257Z,6.43
2019-05-17T23:41:26.863Z,6.17
2019-05-17T23:43:55.430Z,5.77
2019-05-17T23:46:23.630Z,6.17
2019-05-17T23:48:52.195Z,5.63
2019-05-17T23:51:20.813Z,5.20
2019-05-17T23:53:49.367Z,6.00
2019-05-17T23:56:17.899Z,5.53
2019-05-17T23:58:46.388Z,6.00
